sensor_id;sensor_type;location;lat;lon;timestamp;temperature;humidity
6462;DHT22;3264;42.862;25.098;2023-11-19T00:01:40;4.50;99.90
6462;DHT22;3264;42.862;25.098;2023-11-19T00:04:13;4.50;99.90
6462;DHT22;3264;42.862;25.098;2023-11-19T00:06:41;4.50;99.90
6462;DHT22;3264;42.862;25.098;2023-11-19T00:09:25;4.50;99.90
6462;DHT22;3264;42.862;25.098;2023-11-19T00:11:53;4.50;99.90
6462;DHT22;3264;42.862;25.098;2023-11-19T00:14:24;4.50;99.90
6462;DHT22;3264;42.862;25.098;2023-11-19T00:16:54;4.50;99.90
6462;DHT22;3264;42.862;25.098;2023-11-19T00:19:22;4.50;99.90
6462;DHT22;3264;42.862;25.098;2023-11-19T00:21:51;4.50;99.90
6462;DHT22;3264;42.862;25.098;2023-11-19T00:24:19;4.50;99.90
6462;DHT22;3264;42.862;25.098;2023-11-19T00:26:49;4.40;99.90
6462;DHT22;3264;42.862;25.098;2023-11-19T00:29:17;4.50;99.90
6462;DHT22;3264;42.862;25.098;2023-11-19T00:31:50;4.50;99.90
6462;DHT22;3264;42.862;25.098;2023-11-19T00:34:21;4.50;99.90
6462;DHT22;3264;42.862;25.098;2023-11-19T00:36:51;4.40;99.90
6462;DHT22;3264;42.862;25.098;2023-11-19T00:39:28;4.40;99.90
6462;DHT22;3264;42.862;25.098;2023-11-19T00:41:57;4.40;99.90
6462;DHT22;3264;42.862;25.098;2023-11-19T00:44:25;4.40;99.90
6462;DHT22;3264;42.862;25.098;2023-11-19T00:46:56;4.40;99.90
6462;DHT22;3264;42.862;25.098;2023-11-19T00:49:24;4.40;99.90
6462;DHT22;3264;42.862;25.098;2023-11-19T00:51:52;4.40;99.90
6462;DHT22;3264;42.862;25.098;2023-11-19T00:54:21;4.40;99.90
6462;DHT22;3264;42.862;25.098;2023-11-19T00:56:51;4.40;99.90
6462;DHT22;3264;42.862;25.098;2023-11-19T00:59:19;4.50;99.90
6462;DHT22;3264;42.862;25.098;2023-11-19T01:01:47;4.50;99.90
6462;DHT22;3264;42.862;25.098;2023-11-19T01:04:18;4.50;99.90
6462;DHT22;3264;42.862;25.098;2023-11-19T01:06:47;4.50;99.90
6462;DHT22;3264;42.862;25.098;2023-11-19T01:09:15;4.50;99.90
6462;DHT22;3264;42.862;25.098;2023-11-19T01:11:43;4.50;99.90
6462;DHT22;3264;42.862;25.098;2023-11-19T01:14:11;4.50;99.90
6462;DHT22;3264;42.862;25.098;2023-11-19T01:16:39;4.60;99.90
6462;DHT22;3264;42.862;25.098;2023-11-19T01:19:06;4.60;99.90
6462;DHT22;3264;42.862;25.098;2023-11-19T01:21:35;4.60;99.90
6462;DHT22;3264;42.862;25.098;2023-11-19T01:24:04;4.60;99.90
6462;DHT22;3264;42.862;25.098;2023-11-19T01:26:36;4.50;99.90
6462;DHT22;3264;42.862;25.098;2023-11-19T01:29:03;4.60;99.90
6462;DHT22;3264;42.862;25.098;2023-11-19T01:31:32;4.60;99.90
6462;DHT22;3264;42.862;25.098;2023-11-19T01:34:00;4.70;99.90
6462;DHT22;3264;42.862;25.098;2023-11-19T01:36:28;4.70;99.90
6462;DHT22;3264;42.862;25.098;2023-11-19T01:38:59;4.60;99.90
6462;DHT22;3264;42.862;25.098;2023-11-19T01:41:28;4.60;99.90
6462;DHT22;3264;42.862;25.098;2023-11-19T01:43:55;4.70;99.90
6462;DHT22;3264;42.862;25.098;2023-11-19T01:46:23;4.70;99.90
6462;DHT22;3264;42.862;25.098;2023-11-19T01:48:52;4.70;99.90
6462;DHT22;3264;42.862;25.098;2023-11-19T01:51:22;4.80;99.90
6462;DHT22;3264;42.862;25.098;2023-11-19T01:53:51;4.70;99.90
6462;DHT22;3264;42.862;25.098;2023-11-19T01:56:22;4.80;99.90
6462;DHT22;3264;42.862;25.098;2023-11-19T01:58:51;4.70;99.60
6462;DHT22;3264;42.862;25.098;2023-11-19T02:01:21;4.70;99.90
6462;DHT22;3264;42.862;25.098;2023-11-19T02:03:49;4.80;99.80
6462;DHT22;3264;42.862;25.098;2023-11-19T02:06:19;4.80;99.30
6462;DHT22;3264;42.862;25.098;2023-11-19T02:08:47;4.80;99.30
6462;DHT22;3264;42.862;25.098;2023-11-19T02:11:16;4.70;99.30
6462;DHT22;3264;42.862;25.098;2023-11-19T02:13:46;4.70;99.60
6462;DHT22;3264;42.862;25.098;2023-11-19T02:16:14;4.80;99.90
6462;DHT22;3264;42.862;25.098;2023-11-19T02:18:42;4.80;99.60
6462;DHT22;3264;42.862;25.098;2023-11-19T02:21:10;4.90;99.40
6462;DHT22;3264;42.862;25.098;2023-11-19T02:23:38;4.90;99.50
6462;DHT22;3264;42.862;25.098;2023-11-19T02:26:16;4.90;99.40
6462;DHT22;3264;42.862;25.098;2023-11-19T02:28:48;4.80;98.90
6462;DHT22;3264;42.862;25.098;2023-11-19T02:31:16;4.80;99.00
6462;DHT22;3264;42.862;25.098;2023-11-19T02:33:46;4.70;98.80
6462;DHT22;3264;42.862;25.098;2023-11-19T02:36:14;4.80;99.30
6462;DHT22;3264;42.862;25.098;2023-11-19T02:38:43;4.80;98.90
6462;DHT22;3264;42.862;25.098;2023-11-19T02:44:24;4.70;98.90
6462;DHT22;3264;42.862;25.098;2023-11-19T02:46:54;4.70;98.70
6462;DHT22;3264;42.862;25.098;2023-11-19T02:49:23;4.60;98.70
6462;DHT22;3264;42.862;25.098;2023-11-19T02:51:51;4.60;98.90
6462;DHT22;3264;42.862;25.098;2023-11-19T02:54:20;4.70;98.90
6462;DHT22;3264;42.862;25.098;2023-11-19T02:56:53;4.70;98.60
6462;DHT22;3264;42.862;25.098;2023-11-19T02:59:27;4.70;99.00
6462;DHT22;3264;42.862;25.098;2023-11-19T03:02:04;4.70;98.70
6462;DHT22;3264;42.862;25.098;2023-11-19T03:04:33;4.70;98.80
6462;DHT22;3264;42.862;25.098;2023-11-19T03:07:02;4.70;98.50
6462;DHT22;3264;42.862;25.098;2023-11-19T03:09:31;4.70;98.30
6462;DHT22;3264;42.862;25.098;2023-11-19T03:11:59;4.70;98.50
6462;DHT22;3264;42.862;25.098;2023-11-19T03:14:29;4.70;98.10
6462;DHT22;3264;42.862;25.098;2023-11-19T03:16:59;4.70;98.50
6462;DHT22;3264;42.862;25.098;2023-11-19T03:19:27;4.70;98.60
6462;DHT22;3264;42.862;25.098;2023-11-19T03:21:56;4.70;98.60
6462;DHT22;3264;42.862;25.098;2023-11-19T03:24:25;4.70;98.50
6462;DHT22;3264;42.862;25.098;2023-11-19T03:26:53;4.80;98.50
6462;DHT22;3264;42.862;25.098;2023-11-19T03:29:22;4.70;98.70
6462;DHT22;3264;42.862;25.098;2023-11-19T03:31:53;4.70;98.60
6462;DHT22;3264;42.862;25.098;2023-11-19T03:34:21;4.70;98.30
6462;DHT22;3264;42.862;25.098;2023-11-19T03:36:49;4.70;98.10
6462;DHT22;3264;42.862;25.098;2023-11-19T03:39:18;4.70;98.10
6462;DHT22;3264;42.862;25.098;2023-11-19T03:41:46;4.80;98.10
6462;DHT22;3264;42.862;25.098;2023-11-19T03:44:14;4.80;98.20
6462;DHT22;3264;42.862;25.098;2023-11-19T03:46:43;4.80;98.00
6462;DHT22;3264;42.862;25.098;2023-11-19T03:49:14;4.80;98.00
6462;DHT22;3264;42.862;25.098;2023-11-19T03:51:42;4.80;97.90
6462;DHT22;3264;42.862;25.098;2023-11-19T03:54:11;4.80;97.80
6462;DHT22;3264;42.862;25.098;2023-11-19T03:56:39;4.80;97.80
6462;DHT22;3264;42.862;25.098;2023-11-19T03:59:08;4.80;97.60
6462;DHT22;3264;42.862;25.098;2023-11-19T04:01:36;4.70;97.40
6462;DHT22;3264;42.862;25.098;2023-11-19T04:04:05;4.70;97.90
6462;DHT22;3264;42.862;25.098;2023-11-19T04:06:35;4.70;98.00
6462;DHT22;3264;42.862;25.098;2023-11-19T04:09:11;4.70;97.40
6462;DHT22;3264;42.862;25.098;2023-11-19T04:11:39;4.70;97.90
6462;DHT22;3264;42.862;25.098;2023-11-19T04:14:08;4.70;97.90
6462;DHT22;3264;42.862;25.098;2023-11-19T04:16:36;4.70;97.90
6462;DHT22;3264;42.862;25.098;2023-11-19T04:19:04;4.70;97.60
6462;DHT22;3264;42.862;25.098;2023-11-19T04:21:34;4.70;98.00
6462;DHT22;3264;42.862;25.098;2023-11-19T04:24:03;4.70;97.70
6462;DHT22;3264;42.862;25.098;2023-11-19T04:26:32;4.70;97.80
6462;DHT22;3264;42.862;25.098;2023-11-19T04:29:00;4.70;97.90
6462;DHT22;3264;42.862;25.098;2023-11-19T04:31:29;4.70;97.60
6462;DHT22;3264;42.862;25.098;2023-11-19T04:33:58;4.70;97.40
6462;DHT22;3264;42.862;25.098;2023-11-19T04:36:28;4.70;97.40
6462;DHT22;3264;42.862;25.098;2023-11-19T04:38:57;4.70;97.40
6462;DHT22;3264;42.862;25.098;2023-11-19T04:41:26;4.70;97.30
6462;DHT22;3264;42.862;25.098;2023-11-19T04:43:54;4.70;97.50
6462;DHT22;3264;42.862;25.098;2023-11-19T04:46:23;4.70;97.50
6462;DHT22;3264;42.862;25.098;2023-11-19T04:48:51;4.70;97.70
6462;DHT22;3264;42.862;25.098;2023-11-19T04:51:20;4.80;97.60
6462;DHT22;3264;42.862;25.098;2023-11-19T04:53:49;4.80;97.50
6462;DHT22;3264;42.862;25.098;2023-11-19T04:56:19;4.70;97.50
6462;DHT22;3264;42.862;25.098;2023-11-19T04:58:49;4.70;97.10
6462;DHT22;3264;42.862;25.098;2023-11-19T05:01:18;4.70;97.40
6462;DHT22;3264;42.862;25.098;2023-11-19T05:03:46;4.70;97.10
6462;DHT22;3264;42.862;25.098;2023-11-19T05:06:15;4.70;97.10
6462;DHT22;3264;42.862;25.098;2023-11-19T05:08:43;4.60;96.90
6462;DHT22;3264;42.862;25.098;2023-11-19T05:11:12;4.60;97.10
6462;DHT22;3264;42.862;25.098;2023-11-19T05:13:47;4.60;97.10
6462;DHT22;3264;42.862;25.098;2023-11-19T05:16:14;4.60;97.00
6462;DHT22;3264;42.862;25.098;2023-11-19T05:18:42;4.60;97.30
6462;DHT22;3264;42.862;25.098;2023-11-19T05:21:10;4.60;97.10
6462;DHT22;3264;42.862;25.098;2023-11-19T05:23:38;4.60;97.10
6462;DHT22;3264;42.862;25.098;2023-11-19T05:26:08;4.70;97.20
6462;DHT22;3264;42.862;25.098;2023-11-19T05:28:38;4.70;96.90
6462;DHT22;3264;42.862;25.098;2023-11-19T05:31:09;4.70;96.90
6462;DHT22;3264;42.862;25.098;2023-11-19T05:33:37;4.60;96.70
6462;DHT22;3264;42.862;25.098;2023-11-19T05:36:05;4.70;97.10
6462;DHT22;3264;42.862;25.098;2023-11-19T05:38:34;4.70;97.30
6462;DHT22;3264;42.862;25.098;2023-11-19T05:41:01;4.70;97.10
6462;DHT22;3264;42.862;25.098;2023-11-19T05:43:31;4.70;97.00
6462;DHT22;3264;42.862;25.098;2023-11-19T05:46:00;4.70;97.10
6462;DHT22;3264;42.862;25.098;2023-11-19T05:48:30;4.70;97.00
6462;DHT22;3264;42.862;25.098;2023-11-19T05:50:57;4.70;97.00
6462;DHT22;3264;42.862;25.098;2023-11-19T05:53:27;4.70;96.40
6462;DHT22;3264;42.862;25.098;2023-11-19T05:55:54;4.70;96.70
6462;DHT22;3264;42.862;25.098;2023-11-19T05:58:30;4.70;96.70
6462;DHT22;3264;42.862;25.098;2023-11-19T06:00:58;4.70;96.60
6462;DHT22;3264;42.862;25.098;2023-11-19T06:03:30;4.80;96.80
6462;DHT22;3264;42.862;25.098;2023-11-19T06:05:58;4.80;96.80
6462;DHT22;3264;42.862;25.098;2023-11-19T06:08:27;4.80;96.70
6462;DHT22;3264;42.862;25.098;2023-11-19T06:10:56;4.80;96.50
6462;DHT22;3264;42.862;25.098;2023-11-19T06:13:26;4.90;96.50
6462;DHT22;3264;42.862;25.098;2023-11-19T06:15:54;4.90;96.60
6462;DHT22;3264;42.862;25.098;2023-11-19T06:18:22;4.90;96.30
6462;DHT22;3264;42.862;25.098;2023-11-19T06:20:51;4.90;96.40
6462;DHT22;3264;42.862;25.098;2023-11-19T06:23:20;4.80;96.20
6462;DHT22;3264;42.862;25.098;2023-11-19T06:25:48;4.90;96.40
6462;DHT22;3264;42.862;25.098;2023-11-19T06:28:17;4.90;96.40
6462;DHT22;3264;42.862;25.098;2023-11-19T06:30:44;4.90;96.20
6462;DHT22;3264;42.862;25.098;2023-11-19T06:33:14;4.90;96.20
6462;DHT22;3264;42.862;25.098;2023-11-19T06:35:42;4.90;96.10
6462;DHT22;3264;42.862;25.098;2023-11-19T06:38:12;4.80;96.00
6462;DHT22;3264;42.862;25.098;2023-11-19T06:40:41;4.80;95.80
6462;DHT22;3264;42.862;25.098;2023-11-19T06:43:08;4.80;96.00
6462;DHT22;3264;42.862;25.098;2023-11-19T06:45:36;4.80;95.70
6462;DHT22;3264;42.862;25.098;2023-11-19T06:48:05;4.80;96.10
6462;DHT22;3264;42.862;25.098;2023-11-19T06:50:34;4.90;95.80
6462;DHT22;3264;42.862;25.098;2023-11-19T06:53:02;4.90;96.10
6462;DHT22;3264;42.862;25.098;2023-11-19T06:55:32;4.90;96.00
6462;DHT22;3264;42.862;25.098;2023-11-19T06:58:00;5.00;95.80
6462;DHT22;3264;42.862;25.098;2023-11-19T07:00:30;5.00;95.90
6462;DHT22;3264;42.862;25.098;2023-11-19T07:02:59;5.20;95.90
6462;DHT22;3264;42.862;25.098;2023-11-19T07:05:28;5.20;95.20
6462;DHT22;3264;42.862;25.098;2023-11-19T07:07:57;5.20;95.20
6462;DHT22;3264;42.862;25.098;2023-11-19T07:10:25;5.20;95.40
6462;DHT22;3264;42.862;25.098;2023-11-19T07:12:54;5.10;95.10
6462;DHT22;3264;42.862;25.098;2023-11-19T07:15:23;5.20;95.50
6462;DHT22;3264;42.862;25.098;2023-11-19T07:17:51;5.20;95.60
6462;DHT22;3264;42.862;25.098;2023-11-19T07:20:20;5.20;95.30
6462;DHT22;3264;42.862;25.098;2023-11-19T07:22:48;5.30;95.00
6462;DHT22;3264;42.862;25.098;2023-11-19T07:25:16;5.30;95.20
6462;DHT22;3264;42.862;25.098;2023-11-19T07:27:45;5.40;95.30
6462;DHT22;3264;42.862;25.098;2023-11-19T07:30:16;5.40;94.90
6462;DHT22;3264;42.862;25.098;2023-11-19T07:32:44;5.40;95.10
6462;DHT22;3264;42.862;25.098;2023-11-19T07:35:12;5.40;94.80
6462;DHT22;3264;42.862;25.098;2023-11-19T07:37:41;5.40;94.60
6462;DHT22;3264;42.862;25.098;2023-11-19T07:40:11;5.40;94.40
6462;DHT22;3264;42.862;25.098;2023-11-19T07:42:39;5.50;94.40
6462;DHT22;3264;42.862;25.098;2023-11-19T07:45:09;5.60;94.50
6462;DHT22;3264;42.862;25.098;2023-11-19T07:47:39;5.60;94.50
6462;DHT22;3264;42.862;25.098;2023-11-19T07:50:09;5.70;94.80
6462;DHT22;3264;42.862;25.098;2023-11-19T07:52:37;5.80;94.50
6462;DHT22;3264;42.862;25.098;2023-11-19T07:55:06;5.90;94.30
6462;DHT22;3264;42.862;25.098;2023-11-19T07:57:33;5.90;93.70
6462;DHT22;3264;42.862;25.098;2023-11-19T08:00:03;5.90;93.80
6462;DHT22;3264;42.862;25.098;2023-11-19T08:02:31;5.90;93.50
6462;DHT22;3264;42.862;25.098;2023-11-19T08:05:01;5.90;93.30
6462;DHT22;3264;42.862;25.098;2023-11-19T08:07:29;5.80;93.30
6462;DHT22;3264;42.862;25.098;2023-11-19T08:09:58;5.90;93.80
6462;DHT22;3264;42.862;25.098;2023-11-19T08:12:26;5.80;92.80
6462;DHT22;3264;42.862;25.098;2023-11-19T08:14:54;5.80;93.10
6462;DHT22;3264;42.862;25.098;2023-11-19T08:17:22;5.90;93.10
6462;DHT22;3264;42.862;25.098;2023-11-19T08:19:50;6.00;93.40
6462;DHT22;3264;42.862;25.098;2023-11-19T08:22:20;6.00;92.90
6462;DHT22;3264;42.862;25.098;2023-11-19T08:24:49;6.10;92.40
6462;DHT22;3264;42.862;25.098;2023-11-19T08:27:16;5.90;93.10
6462;DHT22;3264;42.862;25.098;2023-11-19T08:29:45;6.00;93.10
6462;DHT22;3264;42.862;25.098;2023-11-19T08:32:13;6.00;93.70
6462;DHT22;3264;42.862;25.098;2023-11-19T08:34:41;6.10;92.90
6462;DHT22;3264;42.862;25.098;2023-11-19T08:37:09;6.20;92.20
6462;DHT22;3264;42.862;25.098;2023-11-19T08:39:38;6.10;92.80
6462;DHT22;3264;42.862;25.098;2023-11-19T08:42:12;6.00;92.90
6462;DHT22;3264;42.862;25.098;2023-11-19T08:44:40;6.10;92.40
6462;DHT22;3264;42.862;25.098;2023-11-19T08:47:11;6.20;92.20
6462;DHT22;3264;42.862;25.098;2023-11-19T08:49:39;6.30;92.30
6462;DHT22;3264;42.862;25.098;2023-11-19T08:52:08;6.40;92.40
6462;DHT22;3264;42.862;25.098;2023-11-19T08:54:38;6.50;92.80
6462;DHT22;3264;42.862;25.098;2023-11-19T08:57:06;6.50;91.80
6462;DHT22;3264;42.862;25.098;2023-11-19T08:59:35;6.60;91.80
6462;DHT22;3264;42.862;25.098;2023-11-19T09:02:05;6.70;91.90
6462;DHT22;3264;42.862;25.098;2023-11-19T09:04:35;6.80;91.70
6462;DHT22;3264;42.862;25.098;2023-11-19T09:07:04;6.80;91.50
6462;DHT22;3264;42.862;25.098;2023-11-19T09:09:32;7.00;91.60
6462;DHT22;3264;42.862;25.098;2023-11-19T09:12:04;7.30;91.40
6462;DHT22;3264;42.862;25.098;2023-11-19T09:14:33;7.40;90.20
6462;DHT22;3264;42.862;25.098;2023-11-19T09:17:01;7.40;90.90
6462;DHT22;3264;42.862;25.098;2023-11-19T09:19:33;7.50;90.70
6462;DHT22;3264;42.862;25.098;2023-11-19T09:22:02;7.70;90.40
6462;DHT22;3264;42.862;25.098;2023-11-19T09:24:30;7.70;90.10
6462;DHT22;3264;42.862;25.098;2023-11-19T09:26:58;7.90;89.50
6462;DHT22;3264;42.862;25.098;2023-11-19T09:29:27;8.70;88.50
6462;DHT22;3264;42.862;25.098;2023-11-19T09:31:56;9.60;84.80
6462;DHT22;3264;42.862;25.098;2023-11-19T09:34:24;9.90;81.50
6462;DHT22;3264;42.862;25.098;2023-11-19T09:36:52;10.90;82.20
6462;DHT22;3264;42.862;25.098;2023-11-19T09:39:21;11.90;75.50
6462;DHT22;3264;42.862;25.098;2023-11-19T09:41:49;12.20;72.40
6462;DHT22;3264;42.862;25.098;2023-11-19T09:44:17;12.20;70.20
6462;DHT22;3264;42.862;25.098;2023-11-19T09:46:47;12.10;70.90
6462;DHT22;3264;42.862;25.098;2023-11-19T09:51:44;12.20;67.80
6462;DHT22;3264;42.862;25.098;2023-11-19T09:54:12;12.90;68.40
6462;DHT22;3264;42.862;25.098;2023-11-19T09:56:41;13.30;66.60
6462;DHT22;3264;42.862;25.098;2023-11-19T09:59:10;14.50;64.30
6462;DHT22;3264;42.862;25.098;2023-11-19T10:01:38;15.10;58.20
6462;DHT22;3264;42.862;25.098;2023-11-19T10:04:10;14.20;56.60
6462;DHT22;3264;42.862;25.098;2023-11-19T10:06:39;13.40;58.00
6462;DHT22;3264;42.862;25.098;2023-11-19T10:09:09;13.40;59.40
6462;DHT22;3264;42.862;25.098;2023-11-19T10:11:39;12.80;58.70
6462;DHT22;3264;42.862;25.098;2023-11-19T10:14:06;12.90;60.90
6462;DHT22;3264;42.862;25.098;2023-11-19T10:16:35;13.20;60.10
6462;DHT22;3264;42.862;25.098;2023-11-19T10:19:02;13.10;61.10
6462;DHT22;3264;42.862;25.098;2023-11-19T10:21:34;12.70;59.60
6462;DHT22;3264;42.862;25.098;2023-11-19T10:24:02;12.20;61.50
6462;DHT22;3264;42.862;25.098;2023-11-19T10:26:30;12.10;61.30
6462;DHT22;3264;42.862;25.098;2023-11-19T10:29:00;11.80;61.90
6462;DHT22;3264;42.862;25.098;2023-11-19T10:31:28;11.70;63.60
6462;DHT22;3264;42.862;25.098;2023-11-19T10:33:55;11.10;62.70
6462;DHT22;3264;42.862;25.098;2023-11-19T10:36:24;10.90;63.60
6462;DHT22;3264;42.862;25.098;2023-11-19T10:39:07;11.00;66.40
6462;DHT22;3264;42.862;25.098;2023-11-19T10:41:35;11.30;66.00
6462;DHT22;3264;42.862;25.098;2023-11-19T10:44:03;11.40;63.70
6462;DHT22;3264;42.862;25.098;2023-11-19T10:46:38;11.40;65.00
6462;DHT22;3264;42.862;25.098;2023-11-19T10:49:08;12.00;64.70
6462;DHT22;3264;42.862;25.098;2023-11-19T10:51:36;11.90;62.60
6462;DHT22;3264;42.862;25.098;2023-11-19T10:54:11;11.90;62.70
6462;DHT22;3264;42.862;25.098;2023-11-19T10:56:40;11.60;61.90
6462;DHT22;3264;42.862;25.098;2023-11-19T10:59:10;11.70;60.20
6462;DHT22;3264;42.862;25.098;2023-11-19T11:01:43;11.60;61.10
6462;DHT22;3264;42.862;25.098;2023-11-19T11:04:14;11.60;60.00
6462;DHT22;3264;42.862;25.098;2023-11-19T11:06:43;12.00;64.10
6462;DHT22;3264;42.862;25.098;2023-11-19T11:09:13;12.40;62.60
6462;DHT22;3264;42.862;25.098;2023-11-19T11:11:47;12.70;61.80
6462;DHT22;3264;42.862;25.098;2023-11-19T11:14:16;12.60;61.10
6462;DHT22;3264;42.862;25.098;2023-11-19T11:16:46;12.10;61.10
6462;DHT22;3264;42.862;25.098;2023-11-19T11:19:17;11.40;59.80
6462;DHT22;3264;42.862;25.098;2023-11-19T11:21:49;10.70;61.30
6462;DHT22;3264;42.862;25.098;2023-11-19T11:24:53;10.50;63.90
6462;DHT22;3264;42.862;25.098;2023-11-19T11:30:35;9.70;67.20
6462;DHT22;3264;42.862;25.098;2023-11-19T11:33:24;9.70;67.20
6462;DHT22;3264;42.862;25.098;2023-11-19T11:36:03;9.60;66.60
6462;DHT22;3264;42.862;25.098;2023-11-19T11:38:37;9.60;66.70
6462;DHT22;3264;42.862;25.098;2023-11-19T11:41:20;9.70;68.10
6462;DHT22;3264;42.862;25.098;2023-11-19T11:43:50;9.80;68.90
6462;DHT22;3264;42.862;25.098;2023-11-19T11:49:31;9.90;66.60
6462;DHT22;3264;42.862;25.098;2023-11-19T11:52:04;9.70;65.30
6462;DHT22;3264;42.862;25.098;2023-11-19T11:54:34;9.80;65.90
6462;DHT22;3264;42.862;25.098;2023-11-19T11:57:07;10.10;66.90
6462;DHT22;3264;42.862;25.098;2023-11-19T11:59:54;10.30;65.20
6462;DHT22;3264;42.862;25.098;2023-11-19T12:02:22;10.50;64.60
6462;DHT22;3264;42.862;25.098;2023-11-19T12:04:51;10.70;62.20
6462;DHT22;3264;42.862;25.098;2023-11-19T12:07:20;10.80;62.40
6462;DHT22;3264;42.862;25.098;2023-11-19T12:09:52;10.80;62.90
6462;DHT22;3264;42.862;25.098;2023-11-19T12:12:26;10.90;66.20
6462;DHT22;3264;42.862;25.098;2023-11-19T12:15:05;11.10;64.80
6462;DHT22;3264;42.862;25.098;2023-11-19T12:17:46;11.10;65.20
6462;DHT22;3264;42.862;25.098;2023-11-19T12:20:17;11.30;63.30
6462;DHT22;3264;42.862;25.098;2023-11-19T12:22:45;11.40;62.30
6462;DHT22;3264;42.862;25.098;2023-11-19T12:25:17;11.50;62.70
6462;DHT22;3264;42.862;25.098;2023-11-19T12:27:48;11.20;62.70
6462;DHT22;3264;42.862;25.098;2023-11-19T12:30:17;11.00;60.80
6462;DHT22;3264;42.862;25.098;2023-11-19T12:32:48;10.60;61.00
6462;DHT22;3264;42.862;25.098;2023-11-19T12:35:17;10.50;63.00
6462;DHT22;3264;42.862;25.098;2023-11-19T12:37:46;10.70;64.10
6462;DHT22;3264;42.862;25.098;2023-11-19T12:40:16;10.80;62.60
6462;DHT22;3264;42.862;25.098;2023-11-19T12:42:46;10.90;62.60
6462;DHT22;3264;42.862;25.098;2023-11-19T12:45:17;11.10;64.90
6462;DHT22;3264;42.862;25.098;2023-11-19T12:47:47;11.20;63.90
6462;DHT22;3264;42.862;25.098;2023-11-19T12:50:16;11.20;60.70
6462;DHT22;3264;42.862;25.098;2023-11-19T12:52:55;11.10;61.10
6462;DHT22;3264;42.862;25.098;2023-11-19T12:55:27;10.70;60.80
6462;DHT22;3264;42.862;25.098;2023-11-19T12:57:56;10.60;62.50
6462;DHT22;3264;42.862;25.098;2023-11-19T13:00:26;10.40;60.90
6462;DHT22;3264;42.862;25.098;2023-11-19T13:02:57;10.30;61.50
6462;DHT22;3264;42.862;25.098;2023-11-19T13:05:28;10.20;61.60
6462;DHT22;3264;42.862;25.098;2023-11-19T13:08:01;10.20;61.70
6462;DHT22;3264;42.862;25.098;2023-11-19T13:10:31;10.20;64.10
6462;DHT22;3264;42.862;25.098;2023-11-19T13:13:06;10.40;62.90
6462;DHT22;3264;42.862;25.098;2023-11-19T13:15:34;10.50;61.10
6462;DHT22;3264;42.862;25.098;2023-11-19T13:18:02;10.50;61.60
6462;DHT22;3264;42.862;25.098;2023-11-19T13:20:31;10.50;64.10
6462;DHT22;3264;42.862;25.098;2023-11-19T13:22:59;10.50;62.00
6462;DHT22;3264;42.862;25.098;2023-11-19T13:25:27;10.40;61.30
6462;DHT22;3264;42.862;25.098;2023-11-19T13:27:57;10.40;62.10
6462;DHT22;3264;42.862;25.098;2023-11-19T13:30:27;10.30;61.60
6462;DHT22;3264;42.862;25.098;2023-11-19T13:32:56;10.40;62.10
6462;DHT22;3264;42.862;25.098;2023-11-19T13:35:24;10.30;61.50
6462;DHT22;3264;42.862;25.098;2023-11-19T13:37:54;10.30;61.40
6462;DHT22;3264;42.862;25.098;2023-11-19T13:40:22;10.30;61.60
6462;DHT22;3264;42.862;25.098;2023-11-19T13:42:51;10.30;62.00
6462;DHT22;3264;42.862;25.098;2023-11-19T13:45:19;10.30;63.10
6462;DHT22;3264;42.862;25.098;2023-11-19T13:47:49;10.50;64.70
6462;DHT22;3264;42.862;25.098;2023-11-19T13:50:17;10.60;63.20
6462;DHT22;3264;42.862;25.098;2023-11-19T13:52:44;10.60;62.20
6462;DHT22;3264;42.862;25.098;2023-11-19T13:55:14;10.50;61.60
6462;DHT22;3264;42.862;25.098;2023-11-19T13:57:43;10.50;63.70
6462;DHT22;3264;42.862;25.098;2023-11-19T14:00:12;10.50;67.10
6462;DHT22;3264;42.862;25.098;2023-11-19T14:02:43;10.50;67.90
6462;DHT22;3264;42.862;25.098;2023-11-19T14:05:12;10.30;65.30
6462;DHT22;3264;42.862;25.098;2023-11-19T14:07:42;10.30;70.00
6462;DHT22;3264;42.862;25.098;2023-11-19T14:10:10;10.20;68.60
6462;DHT22;3264;42.862;25.098;2023-11-19T14:12:39;10.20;67.40
6462;DHT22;3264;42.862;25.098;2023-11-19T14:15:07;10.10;69.50
6462;DHT22;3264;42.862;25.098;2023-11-19T14:17:36;10.00;65.70
6462;DHT22;3264;42.862;25.098;2023-11-19T14:20:05;9.90;65.30
6462;DHT22;3264;42.862;25.098;2023-11-19T14:22:40;9.90;67.70
6462;DHT22;3264;42.862;25.098;2023-11-19T14:25:10;9.80;65.80
6462;DHT22;3264;42.862;25.098;2023-11-19T14:27:38;9.80;65.40
6462;DHT22;3264;42.862;25.098;2023-11-19T14:30:09;9.60;69.90
6462;DHT22;3264;42.862;25.098;2023-11-19T14:32:38;9.40;68.90
6462;DHT22;3264;42.862;25.098;2023-11-19T14:35:08;9.10;70.50
6462;DHT22;3264;42.862;25.098;2023-11-19T14:37:35;8.90;73.40
6462;DHT22;3264;42.862;25.098;2023-11-19T14:40:07;8.80;74.20
6462;DHT22;3264;42.862;25.098;2023-11-19T14:42:38;8.60;74.70
6462;DHT22;3264;42.862;25.098;2023-11-19T14:45:09;8.40;75.50
6462;DHT22;3264;42.862;25.098;2023-11-19T14:47:38;8.30;75.60
6462;DHT22;3264;42.862;25.098;2023-11-19T14:50:07;8.20;76.50
6462;DHT22;3264;42.862;25.098;2023-11-19T14:52:35;7.90;77.40
6462;DHT22;3264;42.862;25.098;2023-11-19T14:55:06;7.50;77.50
6462;DHT22;3264;42.862;25.098;2023-11-19T14:57:35;7.40;78.90
6462;DHT22;3264;42.862;25.098;2023-11-19T15:00:06;7.40;79.80
6462;DHT22;3264;42.862;25.098;2023-11-19T15:02:40;7.30;80.60
6462;DHT22;3264;42.862;25.098;2023-11-19T15:05:08;7.30;81.00
6462;DHT22;3264;42.862;25.098;2023-11-19T15:07:37;7.10;81.40
6462;DHT22;3264;42.862;25.098;2023-11-19T15:10:09;7.10;83.30
6462;DHT22;3264;42.862;25.098;2023-11-19T15:12:37;7.00;82.50
6462;DHT22;3264;42.862;25.098;2023-11-19T15:15:09;6.90;83.20
6462;DHT22;3264;42.862;25.098;2023-11-19T15:17:40;6.80;83.50
6462;DHT22;3264;42.862;25.098;2023-11-19T15:20:09;6.80;83.80
6462;DHT22;3264;42.862;25.098;2023-11-19T15:22:40;6.70;83.90
6462;DHT22;3264;42.862;25.098;2023-11-19T15:25:12;6.60;84.60
6462;DHT22;3264;42.862;25.098;2023-11-19T15:27:40;6.40;85.30
6462;DHT22;3264;42.862;25.098;2023-11-19T15:30:09;6.40;86.20
6462;DHT22;3264;42.862;25.098;2023-11-19T15:32:38;6.30;87.40
6462;DHT22;3264;42.862;25.098;2023-11-19T15:35:07;6.20;87.70
6462;DHT22;3264;42.862;25.098;2023-11-19T15:37:36;6.20;88.50
6462;DHT22;3264;42.862;25.098;2023-11-19T15:40:07;6.20;88.80
6462;DHT22;3264;42.862;25.098;2023-11-19T15:42:39;6.10;89.40
6462;DHT22;3264;42.862;25.098;2023-11-19T15:45:10;6.10;89.50
6462;DHT22;3264;42.862;25.098;2023-11-19T15:47:38;6.00;89.10
6462;DHT22;3264;42.862;25.098;2023-11-19T15:50:07;5.90;89.70
6462;DHT22;3264;42.862;25.098;2023-11-19T15:52:37;5.90;89.90
6462;DHT22;3264;42.862;25.098;2023-11-19T15:55:10;5.80;90.00
6462;DHT22;3264;42.862;25.098;2023-11-19T15:57:40;5.80;90.30
6462;DHT22;3264;42.862;25.098;2023-11-19T16:00:11;5.70;90.50
6462;DHT22;3264;42.862;25.098;2023-11-19T16:02:42;5.70;90.50
6462;DHT22;3264;42.862;25.098;2023-11-19T16:05:11;5.70;90.50
6462;DHT22;3264;42.862;25.098;2023-11-19T16:07:40;5.60;90.80
6462;DHT22;3264;42.862;25.098;2023-11-19T16:10:08;5.50;91.00
6462;DHT22;3264;42.862;25.098;2023-11-19T16:12:40;5.50;91.50
6462;DHT22;3264;42.862;25.098;2023-11-19T16:15:09;5.50;91.70
6462;DHT22;3264;42.862;25.098;2023-11-19T16:17:38;5.50;91.90
6462;DHT22;3264;42.862;25.098;2023-11-19T16:20:07;5.50;92.10
6462;DHT22;3264;42.862;25.098;2023-11-19T16:22:36;5.50;92.40
6462;DHT22;3264;42.862;25.098;2023-11-19T16:25:05;5.50;92.30